Iberica Hav — C6YI3 — position and weather

sailwx.info

Track history (hours):
 
Tides and Currents Weather Stations Pressure Air Temp Water Temp Dewpoint Dewpoint Depression Visibility Wind Speed Wind Dir Waves Ship Positions

Iberica Hav

Last reported at 2016-Jul-24 07:04 UTC. Time now 2016-Jul-24 08:46 UTC.
Position N 53°32' E 004°57'.

Length 88 m; draft 3.8 m.

Type: Cargo ship. MMSI: 311034400.

Date/timePositionNaut miles runAvg speedWind from/ knotsBaromVisibWave heightAir tempDewpointWater temp
2016-Jul-24 07:04N 53°32' E 004°57'5 8.3
2016-Jul-24 06:31N 53°33' E 005°04'9 9.4
2016-Jul-24 05:33N 53°36' E 005°18'1010.4
2016-Jul-24 04:33N 53°40' E 005°35'1010.1
2016-Jul-24 03:33N 53°43' E 005°51'10 9.6
2016-Jul-24 02:33N 53°46' E 006°06'9 9.0
2016-Jul-24 01:33N 53°48' E 006°21'8 7.9
2016-Jul-24 00:33N 53°50' E 006°34'8 7.7
2016-Jul-23 23:33N 53°52' E 006°47'7 7.2
2016-Jul-23 22:33N 53°54' E 006°58'7 7.4
2016-Jul-23 21:33N 53°56' E 007°11'8 8.3
2016-Jul-23 20:33N 53°58' E 007°24'9 9.4
2016-Jul-23 19:33N 54°01' E 007°40'10 9.7
2016-Jul-23 18:34N 54°01' E 007°56'1111.2
2016-Jul-23 17:33N 54°00' E 008°15'1211.7
2016-Jul-23 16:33N 53°58' E 008°35'9 9.1
2016-Jul-23 15:33N 53°52' E 008°45'7 7.5
2016-Jul-23 14:33N 53°51' E 008°58'7 6.9
2016-Jul-23 13:33N 53°54' E 009°09'3 3.0
2016-Jul-23 12:33N 53°56' E 009°12'8 8.2
2016-Jul-23 11:32N 54°03' E 009°18'16 7.5
2016-Jul-23 09:22N 54°15' E 009°37'10 7.6
2016-Jul-23 08:06N 54°22' E 009°50'4 7.6
2016-Jul-23 07:33N 54°20' E 009°56'7 6.8
2016-Jul-23 06:33N 54°22' E 010°07'3 1.7
2016-Jul-23 04:34N 54°24' E 010°12'9 8.4
2016-Jul-23 03:28N 54°31' E 010°22'8 8.8
2016-Jul-23 02:33N 54°34' E 010°35'9 8.6
2016-Jul-23 01:33N 54°35' E 010°50'9 9.2
2016-Jul-23 00:33N 54°36' E 011°06'1010.0
2016-Jul-22 23:33N 54°33' E 011°22'10 9.6
2016-Jul-22 22:33N 54°31' E 011°38'9 8.9
2016-Jul-22 21:33N 54°31' E 011°53'9 8.5
2016-Jul-22 20:33N 54°31' E 012°08'9 9.1
2016-Jul-22 19:33N 54°34' E 012°23'19 9.2
2016-Jul-22 17:25N 54°40' E 012°55'8 9.3
2016-Jul-22 16:33N 54°41' E 013°09'8 8.4
2016-Jul-22 15:33N 54°42' E 013°23'9 9.1
2016-Jul-22 14:33N 54°37' E 013°37'7 7.4
2016-Jul-22 13:33N 54°30' E 013°39'3 0.6
2016-Jul-22 09:11N 54°29' E 013°35'0 0.0
2016-Jul-22 08:32N 54°29' E 013°35'0 0.0
2016-Jul-22 07:32N 54°29' E 013°35'0 0.0
2016-Jul-21 19:32N 54°29' E 013°35'0 0.0
2016-Jul-21 18:32N 54°29' E 013°35'0 0.0
2016-Jul-21 17:32N 54°29' E 013°35'0 0.0
2016-Jul-21 16:32N 54°29' E 013°35'0 0.0
2016-Jul-21 11:11N 54°29' E 013°35'0 0.0
2016-Jul-21 10:26N 54°29' E 013°35'0 0.0
2016-Jul-21 00:23N 54°29' E 013°35'4 1.0
2016-Jul-20 20:24N 54°26' E 013°40'1 1.4
2016-Jul-20 19:33N 54°26' E 013°42'0 0.0
2016-Jul-20 08:33N 54°26' E 013°42'18 0.6
2016-Jul-19 03:26N 54°12' E 014°02'8 8.8
2016-Jul-19 02:33N 54°06' E 014°09'8 8.4
2016-Jul-19 01:33N 53°58' E 014°16'8 7.7
2016-Jul-19 00:34N 53°51' E 014°17'10 9.9
2016-Jul-18 23:33N 53°43' E 014°28'1010.0
2016-Jul-18 22:33N 53°34' E 014°36'9 8.8
2016-Jul-18 21:33N 53°25' E 014°36'1 0.9
2016-Jul-18 20:25N 53°24' E 014°37'0 0.0
2016-Jul-18 19:31N 53°24' E 014°37'0 0.0
2016-Jul-18 18:31N 53°24' E 014°37'0 0.0
2016-Jul-18 17:31N 53°24' E 014°37'0 0.0
2016-Jul-18 16:31N 53°24' E 014°37'0 0.0
2016-Jul-18 15:31N 53°24' E 014°37'0 0.0
2016-Jul-18 14:31N 53°24' E 014°37'0 0.0
2016-Jul-18 13:31N 53°24' E 014°37'0 0.0
2016-Jul-18 12:31N 53°24' E 014°37'0 0.0
2016-Jul-18 11:31N 53°24' E 014°37'0 0.0
2016-Jul-18 10:28N 53°24' E 014°37'0 0.0
2016-Jul-18 09:31N 53°24' E 014°37'0 0.0
2016-Jul-18 08:31N 53°24' E 014°37'0 0.0
2016-Jul-18 07:31N 53°24' E 014°37'0 0.0
2016-Jul-18 06:31N 53°24' E 014°37'0 0.0
2016-Jul-18 05:31N 53°24' E 014°37'0 0.0
2016-Jul-18 04:31N 53°24' E 014°37'0 0.0
2016-Jul-18 03:31N 53°24' E 014°37'0 0.0
2016-Jul-18 02:31N 53°24' E 014°37'0 0.0
2016-Jul-18 01:31N 53°24' E 014°37'0 0.0
2016-Jul-18 00:31N 53°24' E 014°37'0 0.0
2016-Jul-17 23:31N 53°24' E 014°37'0 0.0
2016-Jul-17 22:31N 53°24' E 014°37'0 0.0
2016-Jul-17 21:31N 53°24' E 014°37'0 0.0
2016-Jul-17 20:31N 53°24' E 014°37'0 0.0
2016-Jul-17 19:31N 53°24' E 014°37'0 0.0
2016-Jul-17 18:28N 53°24' E 014°37'0 0.0
2016-Jul-17 17:31N 53°24' E 014°37'0 0.0
2016-Jul-17 16:31N 53°24' E 014°37'0 0.0
2016-Jul-17 15:31N 53°24' E 014°37'0 0.0
2016-Jul-17 14:31N 53°24' E 014°37'0 0.0
2016-Jul-17 13:31N 53°24' E 014°37'0 0.0
2016-Jul-17 12:31N 53°24' E 014°37'0 0.0
2016-Jul-17 11:31N 53°24' E 014°37'0 0.0
2016-Jul-17 10:31N 53°24' E 014°37'0 0.0
2016-Jul-17 09:31N 53°24' E 014°37'0 0.0
2016-Jul-17 08:31N 53°24' E 014°37'0 0.0
2016-Jul-17 07:31N 53°24' E 014°37'0 0.0
2016-Jul-17 06:31N 53°24' E 014°37'0 0.0
2016-Jul-17 04:31N 53°24' E 014°37'0 0.0
2016-Jul-17 03:31N 53°24' E 014°37'0 0.0
2016-Jul-17 02:31N 53°24' E 014°37'0 0.0
2016-Jul-17 01:31N 53°24' E 014°37'0 0.0
2016-Jul-17 00:31N 53°24' E 014°37'0 0.0
2016-Jul-16 23:31N 53°24' E 014°37'0 0.0
2016-Jul-16 22:31N 53°24' E 014°37'0 0.0
2016-Jul-16 21:31N 53°24' E 014°37'0 0.0
2016-Jul-16 20:31N 53°24' E 014°37'0 0.0
2016-Jul-16 19:31N 53°24' E 014°37'0 0.0
2016-Jul-16 18:31N 53°24' E 014°37'0 0.0
2016-Jul-16 17:31N 53°24' E 014°37'0 0.0
2016-Jul-16 16:31N 53°24' E 014°37'0 0.0
2016-Jul-16 15:31N 53°24' E 014°37'0 0.0
2016-Jul-16 14:31N 53°24' E 014°37'0 0.0
2016-Jul-16 13:31N 53°24' E 014°37'0 0.0
2016-Jul-16 12:31N 53°24' E 014°37'0 0.0
2016-Jul-16 11:31N 53°24' E 014°37'0 0.0
2016-Jul-16 10:31N 53°24' E 014°37'0 0.0
2016-Jul-16 09:31N 53°24' E 014°37'0 0.0
2016-Jul-16 08:31N 53°24' E 014°37'0 0.0
2016-Jul-16 07:31N 53°24' E 014°37'0 0.0
2016-Jul-16 06:31N 53°24' E 014°37'0 0.0
2016-Jul-16 04:31N 53°24' E 014°37'0 0.0
2016-Jul-16 03:31N 53°24' E 014°37'0 0.0
2016-Jul-16 02:31N 53°24' E 014°37'0 0.0
2016-Jul-16 01:31N 53°24' E 014°37'0 0.0
2016-Jul-16 00:31N 53°24' E 014°37'0 0.0
2016-Jul-15 23:31N 53°24' E 014°37'0 0.0
2016-Jul-15 22:31N 53°24' E 014°37'0 0.0
2016-Jul-15 21:31N 53°24' E 014°37'0 0.0
2016-Jul-15 20:31N 53°24' E 014°37'0 0.0
2016-Jul-15 19:31N 53°24' E 014°37'0 0.0
2016-Jul-15 18:31N 53°24' E 014°37'0 0.0
2016-Jul-15 17:31N 53°24' E 014°37'4 4.1
2016-Jul-15 16:33N 53°28' E 014°36'8 8.4
2016-Jul-15 15:33N 53°37' E 014°35'14 9.2
2016-Jul-15 14:03N 53°48' E 014°21'4 8.9
2016-Jul-15 13:33N 53°51' E 014°17'8 8.0
2016-Jul-15 12:33N 53°59' E 014°15'76 6.1
2016-Jul-15 00:13N 54°27' E 012°14'5 7.6
2016-Jul-14 23:33N 54°25' E 012°06'8 8.3
2016-Jul-14 22:33N 54°25' E 011°52'9 9.2
2016-Jul-14 21:33N 54°27' E 011°37'9 8.7
2016-Jul-14 20:33N 54°31' E 011°23'8 7.6
2016-Jul-14 19:33N 54°33' E 011°11'8 8.5
2016-Jul-14 18:33N 54°33' E 010°56'9 8.6
2016-Jul-14 17:33N 54°33' E 010°41'9 8.2
2016-Jul-14 16:30N 54°31' E 010°27'8 8.1
2016-Jul-14 15:33N 54°27' E 010°15'6 6.4
2016-Jul-14 14:33N 54°22' E 010°09'0 0.1
2016-Jul-14 13:33N 54°22' E 010°08'5 4.5
2016-Jul-14 12:33N 54°21' E 010°01'2 2.2
2016-Jul-14 11:33N 54°20' E 009°57'7 7.2
2016-Jul-14 10:33N 54°21' E 009°45'7 6.7
2016-Jul-14 09:33N 54°16' E 009°37'15 7.4
2016-Jul-14 07:30N 54°05' E 009°19'  
Track history (hours):
 
Tides and Currents Weather Stations Pressure Air Temp Water Temp Dewpoint Dewpoint Depression Visibility Wind Speed Wind Dir Waves Ship Positions

Iberica Hav

Last reported at 2016-Jul-24 07:04 UTC. Time now 2016-Jul-24 08:46 UTC.
Position N 53°32' E 004°57'.

Length 88 m; draft 3.8 m.

Type: Cargo ship. MMSI: 311034400.

Date/timePositionNaut miles runAvg speedWind from/ knotsBaromVisibWave heightAir tempDewpointWater temp
2016-Jul-24 07:04N 53°32' E 004°57'5 8.3
2016-Jul-24 06:31N 53°33' E 005°04'9 9.4
2016-Jul-24 05:33N 53°36' E 005°18'1010.4
2016-Jul-24 04:33N 53°40' E 005°35'1010.1
2016-Jul-24 03:33N 53°43' E 005°51'10 9.6
2016-Jul-24 02:33N 53°46' E 006°06'9 9.0
2016-Jul-24 01:33N 53°48' E 006°21'8 7.9
2016-Jul-24 00:33N 53°50' E 006°34'8 7.7
2016-Jul-23 23:33N 53°52' E 006°47'7 7.2
2016-Jul-23 22:33N 53°54' E 006°58'7 7.4
2016-Jul-23 21:33N 53°56' E 007°11'8 8.3
2016-Jul-23 20:33N 53°58' E 007°24'9 9.4
2016-Jul-23 19:33N 54°01' E 007°40'10 9.7
2016-Jul-23 18:34N 54°01' E 007°56'1111.2
2016-Jul-23 17:33N 54°00' E 008°15'1211.7
2016-Jul-23 16:33N 53°58' E 008°35'9 9.1
2016-Jul-23 15:33N 53°52' E 008°45'7 7.5
2016-Jul-23 14:33N 53°51' E 008°58'7 6.9
2016-Jul-23 13:33N 53°54' E 009°09'3 3.0
2016-Jul-23 12:33N 53°56' E 009°12'8 8.2
2016-Jul-23 11:32N 54°03' E 009°18'16 7.5
2016-Jul-23 09:22N 54°15' E 009°37'10 7.6
2016-Jul-23 08:06N 54°22' E 009°50'4 7.6
2016-Jul-23 07:33N 54°20' E 009°56'7 6.8
2016-Jul-23 06:33N 54°22' E 010°07'3 1.7
2016-Jul-23 04:34N 54°24' E 010°12'9 8.4
2016-Jul-23 03:28N 54°31' E 010°22'8 8.8
2016-Jul-23 02:33N 54°34' E 010°35'9 8.6
2016-Jul-23 01:33N 54°35' E 010°50'9 9.2
2016-Jul-23 00:33N 54°36' E 011°06'1010.0
2016-Jul-22 23:33N 54°33' E 011°22'10 9.6
2016-Jul-22 22:33N 54°31' E 011°38'9 8.9
2016-Jul-22 21:33N 54°31' E 011°53'9 8.5
2016-Jul-22 20:33N 54°31' E 012°08'9 9.1
2016-Jul-22 19:33N 54°34' E 012°23'19 9.2
2016-Jul-22 17:25N 54°40' E 012°55'8 9.3
2016-Jul-22 16:33N 54°41' E 013°09'8 8.4
2016-Jul-22 15:33N 54°42' E 013°23'9 9.1
2016-Jul-22 14:33N 54°37' E 013°37'7 7.4
2016-Jul-22 13:33N 54°30' E 013°39'3 0.6
2016-Jul-22 09:11N 54°29' E 013°35'0 0.0
2016-Jul-22 08:32N 54°29' E 013°35'0 0.0
2016-Jul-22 07:32N 54°29' E 013°35'0 0.0
2016-Jul-21 19:32N 54°29' E 013°35'0 0.0
2016-Jul-21 18:32N 54°29' E 013°35'0 0.0
2016-Jul-21 17:32N 54°29' E 013°35'0 0.0
2016-Jul-21 16:32N 54°29' E 013°35'0 0.0
2016-Jul-21 11:11N 54°29' E 013°35'0 0.0
2016-Jul-21 10:26N 54°29' E 013°35'0 0.0
2016-Jul-21 00:23N 54°29' E 013°35'4 1.0
2016-Jul-20 20:24N 54°26' E 013°40'1 1.4
2016-Jul-20 19:33N 54°26' E 013°42'0 0.0
2016-Jul-20 08:33N 54°26' E 013°42'18 0.6
2016-Jul-19 03:26N 54°12' E 014°02'8 8.8
2016-Jul-19 02:33N 54°06' E 014°09'8 8.4
2016-Jul-19 01:33N 53°58' E 014°16'8 7.7
2016-Jul-19 00:34N 53°51' E 014°17'10 9.9
2016-Jul-18 23:33N 53°43' E 014°28'1010.0
2016-Jul-18 22:33N 53°34' E 014°36'9 8.8
2016-Jul-18 21:33N 53°25' E 014°36'1 0.9
2016-Jul-18 20:25N 53°24' E 014°37'0 0.0
2016-Jul-18 19:31N 53°24' E 014°37'0 0.0
2016-Jul-18 18:31N 53°24' E 014°37'0 0.0
2016-Jul-18 17:31N 53°24' E 014°37'0 0.0
2016-Jul-18 16:31N 53°24' E 014°37'0 0.0
2016-Jul-18 15:31N 53°24' E 014°37'0 0.0
2016-Jul-18 14:31N 53°24' E 014°37'0 0.0
2016-Jul-18 13:31N 53°24' E 014°37'0 0.0
2016-Jul-18 12:31N 53°24' E 014°37'0 0.0
2016-Jul-18 11:31N 53°24' E 014°37'0 0.0
2016-Jul-18 10:28N 53°24' E 014°37'0 0.0
2016-Jul-18 09:31N 53°24' E 014°37'0 0.0
2016-Jul-18 08:31N 53°24' E 014°37'0 0.0
2016-Jul-18 07:31N 53°24' E 014°37'0 0.0
2016-Jul-18 06:31N 53°24' E 014°37'0 0.0
2016-Jul-18 05:31N 53°24' E 014°37'0 0.0
2016-Jul-18 04:31N 53°24' E 014°37'0 0.0
2016-Jul-18 03:31N 53°24' E 014°37'0 0.0
2016-Jul-18 02:31N 53°24' E 014°37'0 0.0
2016-Jul-18 01:31N 53°24' E 014°37'0 0.0
2016-Jul-18 00:31N 53°24' E 014°37'0 0.0
2016-Jul-17 23:31N 53°24' E 014°37'0 0.0
2016-Jul-17 22:31N 53°24' E 014°37'0 0.0
2016-Jul-17 21:31N 53°24' E 014°37'0 0.0
2016-Jul-17 20:31N 53°24' E 014°37'0 0.0
2016-Jul-17 19:31N 53°24' E 014°37'0 0.0
2016-Jul-17 18:28N 53°24' E 014°37'0 0.0
2016-Jul-17 17:31N 53°24' E 014°37'0 0.0
2016-Jul-17 16:31N 53°24' E 014°37'0 0.0
2016-Jul-17 15:31N 53°24' E 014°37'0 0.0
2016-Jul-17 14:31N 53°24' E 014°37'0 0.0
2016-Jul-17 13:31N 53°24' E 014°37'0 0.0
2016-Jul-17 12:31N 53°24' E 014°37'0 0.0
2016-Jul-17 11:31N 53°24' E 014°37'0 0.0
2016-Jul-17 10:31N 53°24' E 014°37'0 0.0
2016-Jul-17 09:31N 53°24' E 014°37'0 0.0
2016-Jul-17 08:31N 53°24' E 014°37'0 0.0
2016-Jul-17 07:31N 53°24' E 014°37'0 0.0
2016-Jul-17 06:31N 53°24' E 014°37'0 0.0
2016-Jul-17 04:31N 53°24' E 014°37'0 0.0
2016-Jul-17 03:31N 53°24' E 014°37'0 0.0
2016-Jul-17 02:31N 53°24' E 014°37'0 0.0
2016-Jul-17 01:31N 53°24' E 014°37'0 0.0
2016-Jul-17 00:31N 53°24' E 014°37'0 0.0
2016-Jul-16 23:31N 53°24' E 014°37'0 0.0
2016-Jul-16 22:31N 53°24' E 014°37'0 0.0
2016-Jul-16 21:31N 53°24' E 014°37'0 0.0
2016-Jul-16 20:31N 53°24' E 014°37'0 0.0
2016-Jul-16 19:31N 53°24' E 014°37'0 0.0
2016-Jul-16 18:31N 53°24' E 014°37'0 0.0
2016-Jul-16 17:31N 53°24' E 014°37'0 0.0
2016-Jul-16 16:31N 53°24' E 014°37'0 0.0
2016-Jul-16 15:31N 53°24' E 014°37'0 0.0
2016-Jul-16 14:31N 53°24' E 014°37'0 0.0
2016-Jul-16 13:31N 53°24' E 014°37'0 0.0
2016-Jul-16 12:31N 53°24' E 014°37'0 0.0
2016-Jul-16 11:31N 53°24' E 014°37'0 0.0
2016-Jul-16 10:31N 53°24' E 014°37'0 0.0
2016-Jul-16 09:31N 53°24' E 014°37'0 0.0
2016-Jul-16 08:31N 53°24' E 014°37'0 0.0
2016-Jul-16 07:31N 53°24' E 014°37'0 0.0
2016-Jul-16 06:31N 53°24' E 014°37'0 0.0
2016-Jul-16 04:31N 53°24' E 014°37'0 0.0
2016-Jul-16 03:31N 53°24' E 014°37'0 0.0
2016-Jul-16 02:31N 53°24' E 014°37'0 0.0
2016-Jul-16 01:31N 53°24' E 014°37'0 0.0
2016-Jul-16 00:31N 53°24' E 014°37'0 0.0
2016-Jul-15 23:31N 53°24' E 014°37'0 0.0
2016-Jul-15 22:31N 53°24' E 014°37'0 0.0
2016-Jul-15 21:31N 53°24' E 014°37'0 0.0
2016-Jul-15 20:31N 53°24' E 014°37'0 0.0
2016-Jul-15 19:31N 53°24' E 014°37'0 0.0
2016-Jul-15 18:31N 53°24' E 014°37'0 0.0
2016-Jul-15 17:31N 53°24' E 014°37'4 4.1
2016-Jul-15 16:33N 53°28' E 014°36'8 8.4
2016-Jul-15 15:33N 53°37' E 014°35'14 9.2
2016-Jul-15 14:03N 53°48' E 014°21'4 8.9
2016-Jul-15 13:33N 53°51' E 014°17'8 8.0
2016-Jul-15 12:33N 53°59' E 014°15'76 6.1
2016-Jul-15 00:13N 54°27' E 012°14'5 7.6
2016-Jul-14 23:33N 54°25' E 012°06'8 8.3
2016-Jul-14 22:33N 54°25' E 011°52'9 9.2
2016-Jul-14 21:33N 54°27' E 011°37'9 8.7
2016-Jul-14 20:33N 54°31' E 011°23'8 7.6
2016-Jul-14 19:33N 54°33' E 011°11'8 8.5
2016-Jul-14 18:33N 54°33' E 010°56'9 8.6
2016-Jul-14 17:33N 54°33' E 010°41'9 8.2
2016-Jul-14 16:30N 54°31' E 010°27'8 8.1
2016-Jul-14 15:33N 54°27' E 010°15'6 6.4
2016-Jul-14 14:33N 54°22' E 010°09'0 0.1
2016-Jul-14 13:33N 54°22' E 010°08'5 4.5
2016-Jul-14 12:33N 54°21' E 010°01'2 2.2
2016-Jul-14 11:33N 54°20' E 009°57'7 7.2
2016-Jul-14 10:33N 54°21' E 009°45'7 6.7
2016-Jul-14 09:33N 54°16' E 009°37'15 7.4
2016-Jul-14 07:30N 54°05' E 009°19'  

Dump ship's entire track history